Portada
METAR-TAF:

METAR-TAF

Aeroports :

Cedar City, Utah, Estats Units d'Amèrica

latitud: 37-42-24N, longitud: 113-05-48W, altitud: 1715 m

Observació

L'informe es va fer fa 40 minuts, a les 13:53 UTC
Vent calma
Temperatura -11°C
Humitat 92%
Pressió 1032 hPa
Visibilitat: 16.1 km
Cel clar

METAR: KCDC 261353Z AUTO 00000KT 10SM CLR M11/M12 A3047 RMK AO2 SLP359 T11061122

Hora: 07:33 (14:33 UTC)

Pronòstic

L'informe es va fer fa 3 hores i 13 minuts, a les 11:20 UTC
Pronòstic vàlid del 26 a les 12 UTC al 27 a les 12 UTC
Vent 4 kt amb direcció variable
Visibilitat: 10 km
Escasses núvols a una alçada de 25000 ft

TAF: KCDC 261120Z 2612/2712 VRB04KT P6SM FEW250

Observacions i pronòstics meteorològics de més de 4000 aeroports (METAR i TAF).

Les estacions disponibles són els punts grocs i vermells al mapa.

Posi el ratolí al punt desitjat per veure el nom de l'estació.

Feu clic per veure les observacions i els pronòstics meteorològics.

Per canviar el mapa: feu clic els botons verds amb una creu de color negre per apropar; al botó verd amb un guió per allunyar la imatge; o en les fletxes verdes per a mapes adjacents.


METAR-TAF: